Time;durP1;ratioP1;P1;durP2;ratioP2;P2;SDS_P1;SDS_P2;PMS_P1;PMS_P2;Temp;Humidity;BMP_temperature;BMP_pressure;BME280_temperature;BME280_humidity;BME280_pressure;Samples;Min_cycle;Max_cycle;Signal;HPM_P1;HPM_P2
2022/02/13 00:00:15;;;;;;;6.18;1.30;;;;;;;-3.21;72.29;99899.69;4959537;28;20552;-62
2022/02/13 00:02:43;;;;;;;6.13;1.30;;;;;;;-3.19;72.22;99892.56;4975710;28;20038;-62
2022/02/13 00:05:09;;;;;;;7.03;1.33;;;;;;;-3.23;72.35;99896.25;4959094;28;20090;-60
2022/02/13 00:07:35;;;;;;;7.00;1.60;;;;;;;-3.19;72.33;99892.56;4959091;28;20422;-62
2022/02/13 00:10:05;;;;;;;6.78;1.30;;;;;;;-3.18;73.13;99898.69;4958829;28;20048;-63
2022/02/13 00:12:31;;;;;;;6.97;1.70;;;;;;;-3.23;73.09;99896.25;4991214;28;20502;-62
2022/02/13 00:14:57;;;;;;;5.68;1.30;;;;;;;-3.21;72.76;99897.06;4975662;28;20088;-63
2022/02/13 00:17:23;;;;;;;7.43;1.60;;;;;;;-3.23;73.21;99898.88;4959122;28;20104;-61
2022/02/13 00:19:50;;;;;;;5.07;1.20;;;;;;;-3.25;73.17;99892.81;4991209;28;20517;-61
2022/02/13 00:22:17;;;;;;;7.18;1.73;;;;;;;-3.25;73.59;99897.25;4975203;28;20082;-62
2022/02/13 00:24:46;;;;;;;6.85;1.63;;;;;;;-3.25;73.84;99887.53;4975183;28;20046;-62
2022/02/13 00:27:12;;;;;;;7.28;1.42;;;;;;;-3.27;74.09;99899.94;4959429;28;20069;-62
2022/02/13 00:29:42;;;;;;;5.38;1.30;;;;;;;-3.29;74.45;99893.84;4991161;28;20054;-63
2022/02/13 00:32:09;;;;;;;8.07;1.25;;;;;;;-3.29;74.55;99885.91;4959169;28;20038;-61
2022/02/13 00:34:35;;;;;;;10.25;1.52;;;;;;;-3.25;75.21;99892.81;4991568;28;20058;-63
2022/02/13 00:37:02;;;;;;;7.70;1.40;;;;;;;-3.22;74.71;99892.69;4959122;28;20060;-62
2022/02/13 00:39:28;;;;;;;5.68;1.45;;;;;;;-3.20;74.66;99898.78;4975349;28;20136;-62
2022/02/13 00:41:54;;;;;;;6.43;1.65;;;;;;;-3.23;75.01;99895.38;4975488;28;20142;-63
2022/02/13 00:44:20;;;;;;;5.82;1.48;;;;;;;-3.25;74.78;99898.09;4958845;28;20043;-60
2022/02/13 00:46:46;;;;;;;6.95;1.50;;;;;;;-3.26;75.38;99885.78;4958792;28;20050;-61
2022/02/13 00:49:12;;;;;;;9.05;1.70;;;;;;;-3.23;75.46;99885.66;4958622;28;20046;-61
2022/02/13 00:51:38;;;;;;;7.18;1.40;;;;;;;-3.20;75.61;99889.97;4974366;28;20057;-61
2022/02/13 00:54:04;;;;;;;8.27;1.35;;;;;;;-3.17;75.74;99890.72;4958129;28;20446;-60
2022/02/13 00:56:31;;;;;;;6.80;1.40;;;;;;;-3.21;75.64;99878.56;4974805;28;20038;-62
2022/02/13 00:58:57;;;;;;;8.98;1.70;;;;;;;-3.12;75.99;99884.41;4974535;28;20180;-62
2022/02/13 01:01:22;;;;;;;4.88;1.20;;;;;;;-3.15;75.93;99883.59;4958344;28;20429;-62
2022/02/13 01:03:49;;;;;;;7.38;1.50;;;;;;;-3.15;76.33;99883.59;4974081;28;20054;-63
2022/02/13 01:06:14;;;;;;;7.53;1.42;;;;;;;-3.07;76.03;99874.50;4974129;28;20469;-62
2022/02/13 01:08:40;;;;;;;6.57;1.55;;;;;;;-3.02;75.82;99883.13;4942206;28;20137;-62
2022/02/13 01:11:07;;;;;;;6.15;1.60;;;;;;;-3.03;76.66;99891.97;4974461;28;20061;-61
2022/02/13 01:13:34;;;;;;;8.88;1.40;;;;;;;-2.99;76.60;99893.59;4990084;28;20153;-62
2022/02/13 01:16:00;;;;;;;6.60;1.33;;;;;;;-2.94;76.96;99886.31;4990479;28;20058;-62
2022/02/13 01:18:26;;;;;;;6.30;1.50;;;;;;;-2.90;77.13;99887.91;4974033;28;20042;-62
2022/02/13 01:20:53;;;;;;;7.82;1.42;;;;;;;-2.81;77.16;99889.34;4990370;28;20057;-61
2022/02/13 01:23:19;;;;;;;4.63;1.02;;;;;;;-2.79;76.74;99880.41;4990187;28;20451;-64
2022/02/13 01:25:45;;;;;;;6.38;1.20;;;;;;;-2.79;77.41;99880.41;4941947;28;20050;-60
2022/02/13 01:28:11;;;;;;;8.38;1.80;;;;;;;-2.69;77.20;99880.91;4958310;28;20038;-63
2022/02/13 01:30:37;;;;;;;7.60;1.45;;;;;;;-2.67;76.49;99879.03;4957698;28;20529;-62
2022/02/13 01:33:03;;;;;;;6.72;1.48;;;;;;;-2.63;76.97;99877.13;4990002;28;20042;-63
2022/02/13 01:35:30;;;;;;;5.80;1.33;;;;;;;-2.57;77.63;99892.78;4958074;28;20050;-62
2022/02/13 01:37:56;;;;;;;6.50;1.48;;;;;;;-2.51;76.91;99874.00;4973684;28;20133;-62
2022/02/13 01:40:23;;;;;;;5.55;1.52;;;;;;;-2.49;77.18;99882.72;4973884;28;20054;-61
2022/02/13 01:42:49;;;;;;;5.65;1.17;;;;;;;-2.46;77.13;99879.97;4973961;28;20478;-61
2022/02/13 01:45:15;;;;;;;4.20;1.30;;;;;;;-2.49;77.09;99872.13;4957758;28;20185;-62
2022/02/13 01:47:41;;;;;;;6.40;1.48;;;;;;;-2.41;77.10;99880.66;4957371;28;20490;-64
2022/02/13 01:50:09;;;;;;;7.00;1.45;;;;;;;-2.39;77.21;99877.94;4957410;28;20064;-64
2022/02/13 01:52:36;;;;;;;6.32;1.20;;;;;;;-2.38;77.70;99880.50;4957492;28;20046;-62
2022/02/13 01:55:03;;;;;;;6.57;1.40;;;;;;;-2.41;77.37;99870.06;4941722;28;20054;-61
2022/02/13 01:57:29;;;;;;;6.18;1.67;;;;;;;-2.26;77.03;99890.59;4957297;28;20065;-63
2022/02/13 01:59:56;;;;;;;6.15;1.02;;;;;;;-2.26;77.44;99887.94;4941368;28;20405;-62
2022/02/13 02:02:22;;;;;;;5.00;1.27;;;;;;;-2.22;77.43;99886.88;5005854;28;20062;-62
2022/02/13 02:04:50;;;;;;;8.00;2.08;;;;;;;-2.39;77.59;99862.91;4957211;28;20046;-62
2022/02/13 02:07:16;;;;;;;9.00;1.50;;;;;;;-2.21;77.56;99882.44;4957919;28;20042;-61
2022/02/13 02:09:47;;;;;;;5.30;1.20;;;;;;;-2.17;77.73;99888.47;4973724;28;20054;-60
2022/02/13 02:12:13;;;;;;;6.07;1.33;;;;;;;-2.32;77.82;99864.34;4989331;28;20046;-61
2022/02/13 02:14:39;;;;;;;6.38;0.93;;;;;;;-2.13;78.06;99898.00;4957172;28;20428;-61
2022/02/13 02:17:05;;;;;;;6.43;1.77;;;;;;;-2.14;77.49;99891.00;4957348;28;20069;-61
2022/02/13 02:19:31;;;;;;;9.32;1.50;;;;;;;-2.19;77.93;99875.31;4957059;28;20050;-63
2022/02/13 02:21:58;;;;;;;10.50;1.30;;;;;;;-2.07;77.69;99895.09;4957323;28;20132;-62
2022/02/13 02:24:24;;;;;;;4.28;1.10;;;;;;;-2.07;77.93;99887.16;4989533;28;20077;-61
2022/02/13 02:26:51;;;;;;;6.00;1.27;;;;;;;-2.04;78.17;99895.84;4973550;28;20187;-61
2022/02/13 02:29:17;;;;;;;8.27;1.20;;;;;;;-2.05;78.17;99898.53;4957489;28;20459;-62
2022/02/13 02:31:43;;;;;;;6.60;1.50;;;;;;;-2.02;78.02;99898.41;4973466;28;20094;-61
2022/02/13 02:34:09;;;;;;;8.25;1.10;;;;;;;-1.97;78.13;99912.31;4990831;28;20153;-61
2022/02/13 02:36:35;;;;;;;8.10;1.40;;;;;;;-2.11;77.73;99882.91;4960888;28;20053;-60
2022/02/13 02:39:02;;;;;;;5.55;1.42;;;;;;;-1.96;78.09;99914.91;4960691;28;20045;-60
2022/02/13 02:41:29;;;;;;;7.47;1.30;;;;;;;-1.94;78.09;99901.56;4977058;28;20073;-59
2022/02/13 02:43:55;;;;;;;6.78;1.40;;;;;;;-1.93;78.07;99907.75;4994344;28;20109;-61
2022/02/13 02:46:21;;;;;;;7.38;1.50;;;;;;;-1.94;78.23;99901.56;4993279;28;20435;-59
2022/02/13 02:48:47;;;;;;;6.60;1.17;;;;;;;-1.90;78.11;99905.84;4993357;28;20038;-60
2022/02/13 02:51:13;;;;;;;5.85;1.23;;;;;;;-1.89;78.03;99902.25;4993770;28;20054;-60
2022/02/13 02:53:41;;;;;;;7.78;1.48;;;;;;;-1.96;78.61;99883.09;4976833;28;20050;-61
2022/02/13 02:56:07;;;;;;;7.15;1.58;;;;;;;-1.92;78.54;99912.97;4960891;28;20074;-61
2022/02/13 02:58:33;;;;;;;6.38;1.30;;;;;;;-1.88;78.23;99909.25;4944579;28;20050;-57
2022/02/13 03:00:58;;;;;;;7.20;1.20;;;;;;;-1.94;78.15;99888.31;4944086;28;20056;-58
2022/02/13 03:03:24;;;;;;;9.18;1.40;;;;;;;-1.87;78.63;99897.72;4960471;28;20096;-60
2022/02/13 03:05:51;;;;;;;5.68;1.25;;;;;;;-2.00;77.99;99872.72;4977409;28;20478;-58
2022/02/13 03:08:17;;;;;;;5.25;1.10;;;;;;;-1.83;78.58;99904.66;4973953;28;20134;-62
2022/02/13 03:10:44;;;;;;;8.27;1.58;;;;;;;-1.84;78.24;99899.38;4992063;28;20050;-61
2022/02/13 03:13:14;;;;;;;6.80;1.45;;;;;;;-1.84;78.52;99908.19;4976726;28;20152;-63
2022/02/13 03:15:40;;;;;;;6.45;1.33;;;;;;;-1.85;78.41;99914.44;4992788;28;20058;-61
2022/02/13 03:18:06;;;;;;;6.80;1.67;;;;;;;-1.78;77.71;99907.09;5008843;28;20089;-61
2022/02/13 03:20:32;;;;;;;6.18;1.33;;;;;;;-1.84;78.93;99902.03;4975982;28;20054;-61
2022/02/13 03:22:58;;;;;;;9.75;1.50;;;;;;;-1.79;78.49;99900.94;4960145;28;20050;-61
2022/02/13 03:25:24;;;;;;;9.65;1.88;;;;;;;-1.78;78.25;99902.63;4960496;28;20507;-59
2022/02/13 03:27:51;;;;;;;6.80;1.63;;;;;;;-1.79;78.41;99900.94;4977195;28;20136;-59
2022/02/13 03:30:17;;;;;;;5.35;1.15;;;;;;;-1.76;78.32;99900.75;4977077;28;20177;-59
2022/02/13 03:32:42;;;;;;;8.45;1.50;;;;;;;-1.73;78.37;99899.78;4960038;28;20054;-58
2022/02/13 03:35:09;;;;;;;8.32;1.50;;;;;;;-1.75;78.00;99897.22;4976125;28;20391;-60
2022/02/13 03:37:35;;;;;;;7.82;1.27;;;;;;;-1.73;78.11;99892.69;4976048;28;20047;-61
2022/02/13 03:40:00;;;;;;;7.93;1.92;;;;;;;-1.70;77.67;99907.59;4959735;28;20053;-62
2022/02/13 03:42:26;;;;;;;9.35;1.60;;;;;;;-1.67;77.83;99898.66;4975806;28;20122;-62
2022/02/13 03:44:52;;;;;;;7.18;1.50;;;;;;;-1.64;77.53;99911.78;4975162;28;20584;-61
2022/02/13 03:47:18;;;;;;;8.68;2.00;;;;;;;-1.67;77.97;99899.53;4958922;28;20050;-63
2022/02/13 03:49:44;;;;;;;5.97;1.23;;;;;;;-1.65;78.32;99904.75;4959407;28;20505;-62
2022/02/13 03:52:10;;;;;;;6.38;1.40;;;;;;;-1.65;77.78;99902.94;4959556;28;20128;-62
2022/02/13 03:54:35;;;;;;;8.75;1.55;;;;;;;-1.73;77.50;99884.75;4975374;28;20046;-61
2022/02/13 03:57:01;;;;;;;8.48;1.40;;;;;;;-1.57;77.64;99915.84;4975217;28;20049;-61
2022/02/13 03:59:27;;;;;;;8.75;1.60;;;;;;;-1.56;77.49;99907.00;4991832;28;20093;-63
2022/02/13 04:01:53;;;;;;;6.10;1.35;;;;;;;-1.53;77.20;99913.03;4959485;28;20077;-61
2022/02/13 04:04:19;;;;;;;9.15;1.63;;;;;;;-1.48;77.57;99910.16;4959050;28;20402;-61
2022/02/13 04:06:44;;;;;;;6.70;1.52;;;;;;;-1.50;77.15;99906.69;4991219;28;20141;-61
2022/02/13 04:09:10;;;;;;;8.88;1.67;;;;;;;-1.45;77.02;99915.31;4958931;28;20498;-60
2022/02/13 04:11:36;;;;;;;9.73;1.63;;;;;;;-1.42;76.95;99920.50;4959248;28;20485;-63
2022/02/13 04:14:02;;;;;;;8.65;1.80;;;;;;;-1.38;76.73;99923.88;4991355;28;20137;-61
2022/02/13 04:16:28;;;;;;;7.15;1.30;;;;;;;-1.40;76.58;99913.31;4958749;28;20092;-60
2022/02/13 04:18:53;;;;;;;12.00;1.67;;;;;;;-1.38;76.71;99916.78;4959185;28;20052;-62
2022/02/13 04:21:20;;;;;;;11.00;1.60;;;;;;;-1.30;75.63;99925.22;4959059;28;20085;-63
2022/02/13 04:23:46;;;;;;;5.60;1.63;;;;;;;-1.27;75.74;99925.09;4958581;28;20116;-62
2022/02/13 04:26:12;;;;;;;9.55;1.92;;;;;;;-1.26;75.93;99921.50;4974780;28;20474;-62
2022/02/13 04:28:38;;;;;;;8.02;1.30;;;;;;;-1.27;75.90;99911.84;4958741;28;20057;-62
2022/02/13 04:31:04;;;;;;;7.50;1.40;;;;;;;-1.18;75.46;99920.28;4975354;28;20042;-62
2022/02/13 04:33:30;;;;;;;6.70;1.42;;;;;;;-1.14;75.08;99920.06;4974896;28;20065;-62
2022/02/13 04:35:56;;;;;;;10.30;1.88;;;;;;;-1.12;74.74;99920.88;4975082;28;20054;-62
2022/02/13 04:38:22;;;;;;;9.35;1.85;;;;;;;-1.06;74.83;99922.38;4958419;28;20042;-63
2022/02/13 04:40:48;;;;;;;6.75;1.20;;;;;;;-1.05;74.16;99934.72;4974396;28;20078;-63
2022/02/13 04:43:14;;;;;;;6.70;1.60;;;;;;;-1.00;73.94;99938.00;4958581;28;20060;-65
2022/02/13 04:45:39;;;;;;;8.65;1.35;;;;;;;-0.98;74.29;99941.47;4959396;28;20046;-62
2022/02/13 04:48:06;;;;;;;8.75;1.50;;;;;;;-1.00;74.57;99938.88;4975687;28;20046;-65
2022/02/13 04:50:33;;;;;;;7.47;1.48;;;;;;;-0.96;74.28;99944.88;4992400;28;20580;-63
2022/02/13 04:52:59;;;;;;;6.43;1.52;;;;;;;-0.93;73.85;99942.09;4975732;28;20142;-62
2022/02/13 04:55:25;;;;;;;8.90;1.50;;;;;;;-0.94;73.84;99931.56;4992221;28;20110;-64
2022/02/13 04:57:52;;;;;;;10.32;1.95;;;;;;;-0.91;73.55;99942.91;4958586;28;20108;-62
2022/02/13 05:00:19;;;;;;;9.10;1.48;;;;;;;-0.89;73.54;99951.63;4958398;28;20156;-63
2022/02/13 05:02:45;;;;;;;8.05;1.40;;;;;;;-0.90;73.47;99949.91;4990692;28;20050;-63
2022/02/13 05:05:11;;;;;;;7.70;1.73;;;;;;;-0.85;72.81;99934.63;4990635;28;20085;-62
2022/02/13 05:07:38;;;;;;;6.90;1.10;;;;;;;-0.85;73.39;99947.91;4958220;28;20127;-63
2022/02/13 05:10:05;;;;;;;8.52;1.48;;;;;;;-0.84;72.96;99954.06;4973936;28;20078;-63
2022/02/13 05:12:31;;;;;;;8.77;1.65;;;;;;;-0.85;73.18;99957.66;4974059;28;20506;-60
2022/02/13 05:14:57;;;;;;;11.05;1.55;;;;;;;-0.83;72.93;99961.97;4974728;28;20042;-62
2022/02/13 05:17:23;;;;;;;7.18;2.03;;;;;;;-0.85;73.18;99963.81;4974756;28;20042;-62
2022/02/13 05:19:50;;;;;;;6.28;1.30;;;;;;;-0.83;73.05;99972.59;4990933;28;20112;-62
2022/02/13 05:22:16;;;;;;;8.65;1.88;;;;;;;-0.83;72.95;99964.63;4990450;28;20050;-62
2022/02/13 05:24:43;;;;;;;9.32;2.47;;;;;;;-0.85;72.61;99957.66;4990653;28;20050;-60
2022/02/13 05:27:09;;;;;;;8.95;1.67;;;;;;;-0.77;72.92;99960.81;4989846;28;20509;-63
2022/02/13 05:29:36;;;;;;;11.75;1.50;;;;;;;-0.78;72.94;99962.59;4957938;28;20077;-61
2022/02/13 05:32:03;;;;;;;8.57;1.60;;;;;;;-0.88;72.28;99944.53;4941848;28;20073;-63
2022/02/13 05:34:30;;;;;;;8.43;1.63;;;;;;;-0.79;72.98;99968.00;4990049;28;20054;-63
2022/02/13 05:36:56;;;;;;;8.82;1.27;;;;;;;-0.77;73.45;99977.63;4973687;28;20133;-61
2022/02/13 05:39:22;;;;;;;8.77;1.63;;;;;;;-0.75;72.90;99975.75;4973629;28;20050;-61
2022/02/13 05:41:48;;;;;;;11.02;1.58;;;;;;;-0.70;72.75;99982.63;4973668;28;20096;-60
2022/02/13 05:44:14;;;;;;;12.75;1.52;;;;;;;-0.70;72.98;99983.47;4957217;28;20101;-62
2022/02/13 05:46:41;;;;;;;9.57;2.05;;;;;;;-0.74;72.78;99979.25;4957757;28;20042;-63
2022/02/13 05:49:07;;;;;;;8.63;1.90;;;;;;;-0.69;72.60;99989.69;4973706;28;20057;-63
2022/02/13 05:51:33;;;;;;;7.93;1.75;;;;;;;-0.68;72.63;99983.44;4957313;28;20046;-62
2022/02/13 05:53:59;;;;;;;7.82;2.03;;;;;;;-0.83;72.86;99956.66;4957258;28;20197;-63
2022/02/13 05:56:26;;;;;;;11.45;1.63;;;;;;;-0.67;72.55;99979.81;4957658;28;20477;-63
2022/02/13 05:58:52;;;;;;;8.82;1.52;;;;;;;-0.65;72.53;99986.81;4957145;28;20419;-63
2022/02/13 06:01:21;;;;;;;7.25;1.70;;;;;;;-0.65;72.37;99976.19;4957850;28;20058;-62
2022/02/13 06:03:47;;;;;;;11.88;1.92;;;;;;;-0.71;72.13;99971.16;4973442;28;20122;-61
2022/02/13 06:06:13;;;;;;;6.63;1.20;;;;;;;-0.55;72.55;99990.75;4989872;28;20105;-63
2022/02/13 06:08:39;;;;;;;9.65;1.35;;;;;;;-0.59;72.61;99985.63;4972981;28;20078;-63
2022/02/13 06:11:06;;;;;;;12.80;1.75;;;;;;;-0.58;72.25;99982.06;4989442;28;20161;-63
2022/02/13 06:13:32;;;;;;;9.15;1.50;;;;;;;-0.56;71.90;99985.50;4973308;28;20056;-63
2022/02/13 06:16:01;;;;;;;5.47;1.25;;;;;;;-0.51;71.95;99984.34;4957581;28;20485;-63
2022/02/13 06:18:30;;;;;;;10.70;1.35;;;;;;;-0.49;71.78;99986.91;4957208;28;20050;-63
2022/02/13 06:20:56;;;;;;;7.65;1.70;;;;;;;-0.50;71.70;99986.06;4956857;28;20532;-63
2022/02/13 06:23:22;;;;;;;10.85;1.60;;;;;;;-0.45;71.37;99988.50;4972996;28;20077;-63
2022/02/13 06:25:48;;;;;;;9.35;1.35;;;;;;;-0.44;72.09;99989.34;4973406;28;20466;-61
2022/02/13 06:28:13;;;;;;;7.72;2.45;;;;;;;-0.44;71.96;99989.34;4956912;28;20046;-64
2022/02/13 06:30:39;;;;;;;10.75;1.70;;;;;;;-0.48;71.10;99978.00;4957053;28;20478;-61
2022/02/13 06:33:05;;;;;;;10.35;1.70;;;;;;;-0.43;71.65;99994.59;4973279;28;20134;-63
2022/02/13 06:35:32;;;;;;;8.93;1.23;;;;;;;-0.40;71.68;99989.16;4957088;28;20513;-62
2022/02/13 06:38:00;;;;;;;8.57;1.58;;;;;;;-0.37;72.09;99996.94;4989433;28;20046;-62
2022/02/13 06:40:27;;;;;;;7.47;1.58;;;;;;;-0.41;71.71;99995.38;4942443;28;20097;-64
2022/02/13 06:42:53;;;;;;;9.38;1.70;;;;;;;-0.37;71.82;100002.25;4990680;28;20124;-63
2022/02/13 06:45:19;;;;;;;7.00;1.67;;;;;;;-0.38;71.67;99994.38;4974291;28;20482;-60
2022/02/13 06:47:45;;;;;;;10.00;1.60;;;;;;;-0.28;71.28;100015.13;4958676;28;20562;-63
2022/02/13 06:50:11;;;;;;;7.38;1.73;;;;;;;-0.28;71.33;100012.47;4989721;28;20538;-63
2022/02/13 06:52:37;;;;;;;12.02;1.30;;;;;;;-0.22;71.47;100015.75;4957443;28;20054;-63
2022/02/13 06:55:03;;;;;;;8.60;1.73;;;;;;;-0.17;72.06;100030.53;4973900;28;20108;-61
2022/02/13 06:57:29;;;;;;;12.35;2.22;;;;;;;-0.23;71.46;100019.34;4989549;28;20049;-61
2022/02/13 06:59:55;;;;;;;12.18;1.90;;;;;;;-0.18;71.78;100027.94;4941187;28;20042;-63
2022/02/13 07:02:21;;;;;;;9.05;1.88;;;;;;;-0.20;71.12;100020.06;4956871;28;20185;-62
2022/02/13 07:04:47;;;;;;;11.90;2.55;;;;;;;-0.25;71.04;100028.25;4956708;28;20046;-63
2022/02/13 07:07:12;;;;;;;9.52;1.70;;;;;;;-0.14;71.37;100029.53;4956441;28;20042;-62
2022/02/13 07:09:39;;;;;;;10.07;2.05;;;;;;;-0.15;70.98;100025.13;4972776;28;20145;-61
2022/02/13 07:12:08;;;;;;;9.85;2.10;;;;;;;-0.07;71.15;100020.34;4956818;28;20057;-62
2022/02/13 07:14:39;;;;;;;9.98;1.92;;;;;;;-0.17;71.47;100014.59;4973426;28;20220;-61
2022/02/13 07:17:05;;;;;;;8.43;1.70;;;;;;;0.08;71.28;100024.88;4972799;28;20141;-62
2022/02/13 07:19:32;;;;;;;12.60;2.13;;;;;;;0.04;70.91;100022.44;4957032;28;20149;-63
2022/02/13 07:21:58;;;;;;;10.70;2.72;;;;;;;-0.02;69.93;100028.94;4976199;28;20046;-62
2022/02/13 07:24:24;;;;;;;3.85;0.93;;;;;;;0.06;71.01;100032.06;4992497;28;20425;-62
2022/02/13 07:26:50;;;;;;;9.55;2.03;;;;;;;0.10;69.80;100023.00;4960333;28;20042;-62
2022/02/13 07:29:16;;;;;;;9.75;1.63;;;;;;;0.09;70.38;100034.56;4959892;28;20054;-62
2022/02/13 07:31:42;;;;;;;7.95;1.80;;;;;;;0.01;70.62;100034.09;4960514;28;20050;-63
2022/02/13 07:34:08;;;;;;;10.70;1.60;;;;;;;-0.02;70.52;100039.56;4992555;28;20062;-61
2022/02/13 07:36:35;;;;;;;6.07;1.63;;;;;;;-0.04;70.94;100033.44;4976511;28;20065;-60
2022/02/13 07:39:01;;;;;;;7.70;2.03;;;;;;;0.03;70.75;100039.31;5009103;28;20049;-63
2022/02/13 07:41:28;;;;;;;6.88;1.63;;;;;;;0.06;70.85;100042.69;4992295;28;20046;-63
2022/02/13 07:43:56;;;;;;;8.70;1.65;;;;;;;0.14;71.09;100045.84;4960291;28;20439;-63
2022/02/13 07:46:23;;;;;;;8.98;1.58;;;;;;;0.33;70.35;100050.22;4991765;28;20490;-63
2022/02/13 07:48:49;;;;;;;14.90;1.90;;;;;;;0.27;69.85;100055.88;4975691;28;20053;-58
2022/02/13 07:51:16;;;;;;;9.82;1.92;;;;;;;0.26;70.23;100048.81;4976145;28;20046;-65
2022/02/13 07:53:44;;;;;;;8.68;1.88;;;;;;;0.25;69.92;100055.94;4959504;28;20042;-60
2022/02/13 07:56:12;;;;;;;9.27;2.00;;;;;;;0.19;70.58;100049.13;4975929;28;20046;-63
2022/02/13 07:58:38;;;;;;;9.70;2.28;;;;;;;0.20;70.54;100056.16;4975818;28;20065;-62
2022/02/13 08:01:05;;;;;;;11.00;2.58;;;;;;;0.17;70.98;100055.47;4959617;28;20082;-63
2022/02/13 08:03:32;;;;;;;8.98;2.20;;;;;;;0.19;71.04;100049.13;4993062;28;20077;-61
2022/02/13 08:06:00;;;;;;;10.55;2.90;;;;;;;0.32;70.38;100061.81;4971545;28;20030;-64
2022/02/13 08:08:26;;;;;;;6.78;1.90;;;;;;;0.38;70.45;100064.19;4983755;28;20034;-65
2022/02/13 08:10:51;;;;;;;9.95;1.75;;;;;;;0.49;70.38;100061.84;4969407;28;20379;-68
2022/02/13 08:13:18;;;;;;;10.93;2.08;;;;;;;0.63;69.45;100063.81;4966777;28;20046;-68
2022/02/13 08:15:43;;;;;;;10.07;2.40;;;;;;;0.62;68.82;100062.94;4970787;28;20112;-66
2022/02/13 08:18:12;;;;;;;9.75;1.88;;;;;;;0.64;69.87;100054.88;4980026;28;20072;-62
2022/02/13 08:20:39;;;;;;;8.75;1.60;;;;;;;0.75;69.59;100057.84;4986006;28;20478;-64
2022/02/13 08:23:06;;;;;;;8.80;1.92;;;;;;;0.72;69.42;100056.19;4961586;28;20451;-63
2022/02/13 08:25:33;;;;;;;8.40;1.88;;;;;;;0.52;69.36;100004.97;4985709;28;20105;-63
2022/02/13 08:27:59;;;;;;;9.75;2.08;;;;;;;1.15;69.13;100056.59;4963990;28;20043;-59
2022/02/13 08:30:25;;;;;;;13.32;2.55;;;;;;;0.98;68.27;100059.28;4967631;28;20055;-66
2022/02/13 08:32:51;;;;;;;7.93;2.00;;;;;;;1.35;67.92;100068.00;4968596;28;20150;-61
2022/02/13 08:35:17;;;;;;;9.70;2.13;;;;;;;1.66;66.75;100062.72;4953701;28;20054;-66
2022/02/13 08:37:43;;;;;;;6.93;1.60;;;;;;;1.60;67.14;100068.38;4942097;28;20101;-63
2022/02/13 08:40:10;;;;;;;9.07;2.25;;;;;;;1.54;66.32;100079.38;4949821;28;20553;-63
2022/02/13 08:42:37;;;;;;;11.32;2.75;;;;;;;1.44;66.55;100048.84;4938676;28;20045;-61
2022/02/13 08:45:04;;;;;;;8.82;1.63;;;;;;;1.69;66.65;100073.22;4972034;28;20046;-67
2022/02/13 08:47:30;;;;;;;11.63;1.95;;;;;;;1.59;65.90;100072.00;4950028;28;20070;-65
2022/02/13 08:49:56;;;;;;;10.63;2.22;;;;;;;1.33;67.45;100069.88;4944630;28;20043;-65
2022/02/13 08:52:23;;;;;;;7.60;1.77;;;;;;;1.15;66.96;100056.59;4975052;28;20141;-64
2022/02/13 08:54:49;;;;;;;6.75;1.77;;;;;;;1.55;67.47;100080.25;4972548;28;20129;-67
2022/02/13 08:57:15;;;;;;;9.50;1.90;;;;;;;1.43;66.22;100087.09;4951914;28;20148;-65
2022/02/13 08:59:41;;;;;;;11.18;2.47;;;;;;;1.32;67.07;100078.84;4960758;28;20046;-60
2022/02/13 09:02:07;;;;;;;10.77;2.78;;;;;;;1.05;67.17;100039.41;4963664;28;20068;-59
2022/02/13 09:04:34;;;;;;;11.32;2.65;;;;;;;1.29;67.23;100079.00;4984737;28;20113;-57
2022/02/13 09:07:01;;;;;;;7.70;2.03;;;;;;;1.30;67.60;100083.38;4981694;28;20049;-60
2022/02/13 09:09:30;;;;;;;10.40;2.42;;;;;;;1.04;67.83;100053.66;4897378;28;20049;-57
2022/02/13 09:11:56;;;;;;;11.27;2.33;;;;;;;1.16;67.80;100079.63;4247343;33;20121;-59
2022/02/13 09:14:22;;;;;;;8.07;2.35;;;;;;;1.33;67.74;100075.22;4245320;33;20134;-61
2022/02/13 09:16:47;;;;;;;10.43;2.40;;;;;;;1.54;66.90;100073.19;4243188;33;20055;-60
2022/02/13 09:19:14;;;;;;;7.70;2.47;;;;;;;1.44;66.61;100065.69;4246839;33;20130;-62
2022/02/13 09:21:40;;;;;;;12.13;2.70;;;;;;;1.58;66.69;100078.28;4237603;33;20054;-56
2022/02/13 09:24:06;;;;;;;9.13;2.00;;;;;;;1.78;65.96;100061.16;4821045;28;20529;-60
2022/02/13 09:26:32;;;;;;;10.07;2.88;;;;;;;2.25;65.30;100064.75;4924780;28;20159;-59
2022/02/13 09:29:00;;;;;;;13.02;2.28;;;;;;;1.96;65.17;100064.63;4934545;28;20599;-58
2022/02/13 09:31:26;;;;;;;7.78;2.17;;;;;;;2.38;64.38;100063.13;4969109;28;20512;-57
2022/02/13 09:33:52;;;;;;;11.32;2.42;;;;;;;2.65;62.71;100069.50;4970343;28;20046;-57
2022/02/13 09:36:21;;;;;;;10.85;2.08;;;;;;;2.22;63.41;100040.94;4933151;28;20458;-57
2022/02/13 09:38:53;;;;;;;8.98;2.00;;;;;;;2.23;63.69;100050.66;4971248;28;20462;-57
2022/02/13 09:41:19;;;;;;;9.15;2.28;;;;;;;2.45;63.57;100077.81;4970841;28;20158;-59
2022/02/13 09:43:45;;;;;;;7.63;2.05;;;;;;;2.55;62.98;100078.97;4937729;28;20463;-60
2022/02/13 09:46:15;;;;;;;12.15;2.05;;;;;;;2.18;64.53;100070.44;4954350;28;20081;-60
2022/02/13 09:48:42;;;;;;;10.10;2.60;;;;;;;1.74;65.76;100088.09;4969370;28;20530;-59
2022/02/13 09:51:10;;;;;;;7.90;2.72;;;;;;;1.68;66.83;100076.84;4939079;28;20469;-61
2022/02/13 09:53:35;;;;;;;8.40;2.17;;;;;;;1.54;66.99;100079.38;4938603;28;20146;-59
2022/02/13 09:56:05;;;;;;;11.15;2.40;;;;;;;1.83;66.22;100058.25;4938344;28;20043;-64
2022/02/13 09:58:31;;;;;;;9.82;2.03;;;;;;;1.75;66.51;100082.66;4929078;28;20045;-61
2022/02/13 10:01:00;;;;;;;10.30;2.13;;;;;;;1.92;66.34;100079.91;4951121;28;20130;-64
2022/02/13 10:03:31;;;;;;;7.43;2.08;;;;;;;1.32;66.15;100078.84;4995250;28;20057;-64
2022/02/13 10:06:04;;;;;;;10.73;1.80;;;;;;;1.37;66.71;100071.44;4959637;28;20537;-64
2022/02/13 10:08:38;;;;;;;14.18;2.08;;;;;;;1.38;67.60;100074.00;4965538;28;20077;-66
2022/02/13 10:11:34;;;;;;;7.25;1.83;;;;;;;1.33;67.35;100083.22;4969589;28;20546;-64
2022/02/13 10:14:12;;;;;;;9.85;2.00;;;;;;;0.88;67.68;100042.97;4930021;28;20129;-60
2022/02/13 10:16:42;;;;;;;13.30;2.67;;;;;;;1.15;67.89;100077.91;4967825;28;20149;-61
2022/02/13 10:19:15;;;;;;;7.28;1.90;;;;;;;1.38;67.49;100083.81;4969816;28;20566;-62
2022/02/13 10:21:50;;;;;;;10.38;2.30;;;;;;;1.37;67.80;100077.63;4969528;28;20150;-61
2022/02/13 10:24:20;;;;;;;10.68;2.58;;;;;;;1.49;67.27;100084.09;4959220;28;20132;-64
2022/02/13 10:26:49;;;;;;;9.05;2.47;;;;;;;1.83;65.66;100084.91;4968838;28;20038;-68
2022/02/13 10:29:16;;;;;;;8.48;2.10;;;;;;;1.89;65.97;100079.22;4978113;28;20117;-64
2022/02/13 10:31:44;;;;;;;11.93;2.20;;;;;;;1.80;65.30;100072.63;4933834;28;20126;-66
2022/02/13 10:34:16;;;;;;;8.52;2.38;;;;;;;1.91;65.10;100078.22;4966302;28;20039;-64
2022/02/13 10:36:46;;;;;;;11.85;2.33;;;;;;;2.13;64.30;100072.53;4939714;28;20118;-66
2022/02/13 10:39:19;;;;;;;8.75;2.00;;;;;;;2.94;61.90;100074.91;4940921;28;20114;-65
2022/02/13 10:41:45;;;;;;;13.30;3.90;;;;;;;3.83;59.85;100077.41;4936668;28;20085;-65
2022/02/13 10:44:11;;;;;;;8.98;2.78;;;;;;;3.66;56.85;100066.91;4955077;28;20070;-65
2022/02/13 10:46:42;;;;;;;12.85;2.70;;;;;;;4.07;58.30;100073.16;4948202;28;20054;-63
2022/02/13 10:49:10;;;;;;;12.43;2.97;;;;;;;4.46;56.13;100068.81;4973388;28;20039;-63
2022/02/13 10:51:36;;;;;;;13.95;3.63;;;;;;;6.24;51.37;100070.59;4967508;28;20055;-64
2022/02/13 10:54:04;;;;;;;11.75;2.92;;;;;;;6.72;47.73;100058.97;4952274;28;20070;-64
2022/02/13 10:56:31;;;;;;;11.10;2.42;;;;;;;7.03;47.51;100062.03;4972674;28;20047;-64
2022/02/13 10:58:59;;;;;;;11.07;2.78;;;;;;;6.51;48.74;100062.34;4956703;28;20078;-64
2022/02/13 11:01:26;;;;;;;8.95;2.38;;;;;;;8.44;44.57;100065.88;4973949;28;20072;-64
2022/02/13 11:03:57;;;;;;;9.48;2.40;;;;;;;9.30;43.46;100058.63;4940876;28;20046;-64
2022/02/13 11:06:28;;;;;;;10.98;2.90;;;;;;;10.80;39.58;100061.34;4942065;28;20082;-64
2022/02/13 11:09:26;;;;;;;9.23;2.42;;;;;;;11.64;37.01;100060.63;4941547;28;20047;-64
2022/02/13 11:11:55;;;;;;;9.93;3.20;;;;;;;11.14;37.77;100058.19;4973325;28;20047;-64
2022/02/13 11:14:40;;;;;;;8.68;2.67;;;;;;;10.69;38.21;100047.13;4958084;28;20106;-64
2022/02/13 11:17:07;;;;;;;13.30;3.17;;;;;;;11.02;37.43;100057.50;4973156;28;20387;-64
2022/02/13 11:19:38;;;;;;;9.38;2.88;;;;;;;11.43;37.60;100057.28;4973332;28;20049;-64
2022/02/13 11:22:04;;;;;;;12.70;2.90;;;;;;;11.31;37.25;100052.03;4973148;28;20051;-64
2022/02/13 11:24:35;;;;;;;10.93;3.85;;;;;;;12.75;35.09;100059.56;4940742;28;20047;-64
2022/02/13 11:27:03;;;;;;;10.20;2.72;;;;;;;12.75;35.08;100061.44;4956729;28;20058;-64
2022/02/13 11:29:52;;;;;;;8.38;3.00;;;;;;;13.44;33.44;100049.81;4973333;28;20051;-64